Aérodrome :
LOGIN :

S'inscrire | Disclaimer

   EN    FR    IT 

 










Légende :    VFR   VFR Marginal   IFR   IFR Intensif   IFR Très Intensif
Visi : 
Plafond : 
>= 8 km
>= 3000ft
5 à 8 km
1000 à 3000 ft
1500m à 5 km
500 à 1000 ft
800 à 1500m
200 à 500 ft
< 800m
< 200 ft
Symboles :   Orages  Brouillard  Fortes neiges  Fortes précipitations  Vent > 20 kt
SIGMETs :   Divers  Orages  Givrage  Turbulence  Onde Orograph.  Cendres Volcan.







- Altitude de l'aérodrome : 499 ft
- Code IATA : TLS
- Voir les cartes d'approche


LFBO - Toulouse / Blagnac

DERNIER METAR :
  • 192100Z AUTO 09005KT 040V130 CAVOK 19/05 Q1022 BECMG 12015KT

METARs EXPIRÉS :
  • 192030Z AUTO 10006KT 070V130 CAVOK 19/05 Q1022 NOSIG
  • 192000Z AUTO 10010KT CAVOK 20/05 Q1022 NOSIG
  • 191930Z AUTO 10009KT 070V140 CAVOK 20/05 Q1022 NOSIG
  • 191900Z AUTO 11010KT 090V150 CAVOK 21/05 Q1022 NOSIG
  • 191830Z AUTO 11009KT CAVOK 21/06 Q1022 NOSIG

TAF TAF LFBO
Valide du 19 à 18h jusqu'au 21 à 00h UTC


191700Z 1918/2024 12015KT CAVOK
BECMG 2001/2003 12005KT
BECMG 2008/2010 13015KT
BECMG 2018/2020 07005KT
ATIS : +33 5 62 74 66 36
Pas de NOTAMs connus pour ce terrain.



MET'MAP, la Météo Aéronautique d'un coup d'oeil ! - Copyright ORBIFLY Décembre 2007 - Disclaimer

ORBIFLY MET'MAP TEAM :

Programmation & Développement : Alexandra Zaïnal
Conception & Développement : Baudouin d'Aumeries
Co-Programmation & Développement : Marc-Olivier Méhu
Soutien technique & logistique : Manuel Goepfert

Contact : metmap@orbifly.com




SOURCES & CREDITS :

   NOAA